Latest Weather Observations for Albion Park

IDN60801

Issued at 9:22 am EST Thursday 1 October 2020 (issued every 10 minutes, with the page automatically refreshed every 10 minutes)

About weather observations | Map of weather stations | Latest weather observations for NSW | Other Formats
Station Details ID: 068241 Name: SHELLHARBOUR AIRPORT Lat: -34.56 Lon: 150.79 Height: 8.0 m
Data from the previous 72 hours. | See also: Recent months at Albion Park
Date/Time
EST
Temp
°C
App
Temp
°C
Dew
Point
°C
Rel
Hum
%
Delta-T
°C
Wind Press
QNH
hPa
Press
MSL
hPa
Rain since
9am
mm
Dir  Spd
km/h
Gust
km/h
Spd
kts
Gust
kts
01/09:00am 19.6 15.9 10.0 54 5.1 WSW 20 41 11 22 1014.7 1014.7 0.8
01/08:30am 18.6 13.3 9.7 56 4.7 WSW 28 41 15 22 1014.4 1014.4 0.8
01/08:00am 17.6 15.5 9.8 60 4.1 WSW 11 22 6 12 1014.3 1014.3 0.8
01/07:30am 16.8 15.7 10.6 67 3.3 NE 7 11 4 6 1013.8 1013.8 0.8
01/07:00am 15.6 14.7 10.6 72 2.6 ENE 6 9 3 5 1013.6 1013.6 0.8
01/06:30am 15.7 13.8 11.7 77 2.2 NW 13 17 7 9 1012.8 1012.8 0.8
01/06:00am 15.8 13.6 12.0 78 2.1 NNW 15 26 8 14 1012.5 1012.5 0.8
01/05:30am 16.2 14.4 12.0 76 2.3 NNE 13 22 7 12 1011.5 1011.5 0.8
01/05:00am 15.5 13.9 12.8 84 1.5 N 13 15 7 8 1012.1 1012.1 0.8
01/04:30am 15.4 14.2 12.9 85 1.4 NNE 11 17 6 9 1011.3 1011.3 0.8
01/04:00am 15.5 14.4 13.0 85 1.4 NNE 11 15 6 8 1011.3 1011.3 0.8
01/03:30am 15.5 15.2 12.6 83 1.6 NNW 6 9 3 5 1011.3 1011.3 0.8
01/03:00am 15.2 14.1 13.2 88 1.1 NNE 11 13 6 7 1010.9 1010.9 0.8
01/02:30am 14.9 13.8 13.1 89 1.0 NE 11 13 6 7 1011.1 1011.1 0.8
01/02:00am 14.6 13.9 13.3 92 0.7 NE 9 13 5 7 1011.4 1011.4 0.6
01/01:30am 15.2 13.5 12.5 84 1.5 SSW 13 20 7 11 1011.8 1011.8 0.2
01/01:00am 16.5 14.9 11.4 72 2.8 N 11 26 6 14 1011.4 1011.4 0.0
01/12:30am 16.3 13.3 10.8 70 2.9 N 17 20 9 11 1011.3 1011.3 0.0
01/12:00am 16.7 12.7 10.5 67 3.3 NW 22 32 12 17 1011.2 1011.2 0.0
 
Date/Time
EST
Temp
°C
App
Temp
°C
Dew
Point
°C
Rel
Hum
%
Delta-T
°C
Wind Press
QNH
hPa
Press
MSL
hPa
Rain since
9am
mm
Dir  Spd
km/h
Gust
km/h
Spd
kts
Gust
kts
30/11:30pm 16.9 14.3 10.7 67 3.3 NNW 15 20 8 11 1011.4 1011.4 0.0
30/11:00pm 17.1 12.4 10.7 66 3.4 NNW 26 39 14 21 1011.7 1011.7 0.0
30/10:30pm 17.3 13.0 10.9 66 3.4 NW 24 32 13 17 1012.1 1012.1 0.0
30/10:00pm 16.2 15.8 11.2 72 2.7 ENE 4 9 2 5 1012.3 1012.3 0.0
30/09:30pm 16.8 15.8 10.9 68 3.2 N 7 9 4 5 1012.7 1012.7 0.0
30/09:00pm 16.6 15.2 10.9 69 3.1 NNW 9 13 5 7 1013.2 1013.2 0.0
30/08:30pm 17.2 15.8 12.1 72 2.8 NNE 11 17 6 9 1013.3 1013.3 0.0
30/08:00pm 16.7 17.1 11.4 71 2.9 CALM 0 0 0 0 1013.3 1013.3 0.0
30/07:30pm 15.7 15.3 12.3 80 1.9 SW 6 9 3 5 1013.1 1013.1 0.0
30/07:00pm 16.0 15.5 12.2 78 2.1 NNW 6 9 3 5 1013.0 1013.0 0.0
30/06:30pm 17.3 16.8 13.8 80 2.0 NNE 9 13 5 7 1013.0 1013.0 0.0
30/06:00pm 17.3 16.8 12.2 72 2.8 ESE 6 11 3 6 1012.9 1012.9 0.0
30/05:30pm 18.5 17.6 11.3 63 3.9 N 7 11 4 6 1012.9 1012.9 0.0
30/05:00pm 18.6 16.9 11.2 62 4.0 NNW 11 13 6 7 1012.9 1012.9 0.0
30/04:30pm 18.7 16.6 11.0 61 4.2 NW 13 17 7 9 1012.8 1012.8 0.0
30/04:00pm 18.9 16.7 10.7 59 4.4 NNW 13 20 7 11 1013.1 1013.1 0.0
30/03:30pm 19.3 16.1 10.0 55 5.0 N 17 20 9 11 1013.0 1013.0 0.0
30/03:00pm 19.9 16.8 10.3 54 5.2 N 17 24 9 13 1013.1 1013.1 0.0
30/02:30pm 17.8 14.3 13.3 75 2.5 ENE 24 32 13 17 1013.2 1013.2 0.0
30/02:00pm 18.4 15.7 13.5 73 2.8 NE 20 28 11 15 1013.7 1013.7 0.0
30/01:30pm 18.8 15.5 12.8 68 3.4 NE 22 28 12 15 1014.2 1014.2 0.0
30/01:00pm 19.1 16.1 12.4 65 3.7 NE 20 26 11 14 1014.5 1014.5 0.0
30/12:30pm 19.2 16.4 11.5 61 4.2 NE 17 22 9 12 1015.1 1015.1 0.0
30/12:00pm 18.8 15.6 11.9 64 3.8 NE 20 26 11 14 1015.7 1015.7 0.0
30/11:30am 18.8 15.5 11.6 63 4.0 NE 20 26 11 14 1016.4 1016.4 0.0
30/11:00am 19.0 16.5 12.3 65 3.7 ENE 17 20 9 11 1017.2 1017.2 0.0
30/10:30am 18.5 15.3 11.1 62 4.0 NE 19 24 10 13 1018.0 1018.0 0.0
30/10:00am 18.2 15.7 9.8 58 4.4 ENE 13 17 7 9 1018.5 1018.5 0.0
30/09:30am 17.8 16.3 10.4 62 4.0 E 9 11 5 6 1019.1 1019.1 0.0
30/09:00am 17.4 15.4 10.1 62 3.9 ENE 11 13 6 7 1019.5 1019.5 0.0
30/08:30am 17.0 16.0 10.4 65 3.5 NW 6 7 3 4 1019.8 1019.8 0.0
30/08:00am 15.0 14.6 9.8 71 2.7 WNW 2 6 1 3 1020.0 1020.0 0.0
30/07:30am 13.1 12.3 11.0 87 1.1 W 6 7 3 4 1019.9 1019.9 0.0
30/07:00am 12.0 10.5 10.4 90 0.8 WNW 9 11 5 6 1019.9 1019.9 0.0
30/06:30am 11.0 9.7 10.1 94 0.5 WNW 7 13 4 7 1019.9 1019.9 0.0
30/06:00am 10.0 8.4 8.9 93 0.5 W 7 9 4 5 1019.6 1019.6 0.0
30/05:30am 10.1 7.4 8.9 92 0.6 WNW 13 15 7 8 1019.5 1019.5 0.0
30/05:00am 10.8 9.9 9.4 91 0.7 WNW 4 7 2 4 1019.3 1019.3 0.0
30/04:30am 10.2 9.7 9.3 94 0.4 N 2 9 1 5 1019.3 1019.3 0.0
30/04:00am 9.6 8.9 8.7 94 0.4 S 2 7 1 4 1019.5 1019.5 0.0
30/03:30am 9.4 7.8 8.0 91 0.7 WNW 6 11 3 6 1019.7 1019.7 0.0
30/03:00am 9.4 9.0 8.2 92 0.6 CALM 0 2 0 1 1020.0 1020.0 0.0
30/02:30am 9.8 9.0 8.2 90 0.8 WSW 2 7 1 4 1020.4 1020.4 0.0
30/02:00am 10.5 9.7 8.3 86 1.1 WSW 2 6 1 3 1020.8 1020.8 0.0
30/01:30am 11.1 9.6 8.5 84 1.3 WSW 6 7 3 4 1021.0 1021.0 0.0
30/01:00am 11.4 9.8 8.8 84 1.3 W 7 11 4 6 1021.6 1021.6 0.0
30/12:30am 11.2 8.8 8.6 84 1.3 WNW 11 13 6 7 1022.0 1022.0 0.0
30/12:00am 10.4 8.7 8.3 87 1.0 WNW 7 13 4 7 1022.4 1022.4 0.0
 
Date/Time
EST
Temp
°C
App
Temp
°C
Dew
Point
°C
Rel
Hum
%
Delta-T
°C
Wind Press
QNH
hPa
Press
MSL
hPa
Rain since
9am
mm
Dir  Spd
km/h
Gust
km/h
Spd
kts
Gust
kts
29/11:30pm 11.1 9.7 8.8 86 1.1 W 6 7 3 4 1022.7 1022.7 0.0
29/11:00pm 12.5 11.2 9.9 84 1.3 NNW 7 19 4 10 1022.7 1022.7 0.0
29/10:30pm 10.5 8.9 8.9 90 0.8 NW 7 11 4 6 1023.1 1023.1 0.0
29/10:00pm 10.5 8.9 8.8 89 0.8 W 7 9 4 5 1023.3 1023.3 0.0
29/09:30pm 10.9 8.7 9.2 89 0.8 W 11 15 6 8 1023.5 1023.5 0.0
29/09:00pm 11.1 9.2 9.0 87 1.0 W 9 11 5 6 1023.8 1023.8 0.0
29/08:30pm 11.0 8.7 8.9 87 1.0 W 11 13 6 7 1024.1 1024.1 0.0
29/08:00pm 11.6 9.3 9.0 84 1.3 W 11 13 6 7 1024.1 1024.1 0.0
29/07:30pm 11.7 9.8 9.1 84 1.3 W 9 13 5 7 1023.9 1023.9 0.0
29/07:00pm 12.3 9.9 8.8 79 1.7 WNW 11 13 6 7 1023.6 1023.6 0.0
29/06:30pm 15.0 13.0 8.7 66 3.2 N 9 11 5 6 1023.3 1023.3 0.0
29/06:00pm 15.3 12.9 8.8 65 3.3 NE 11 17 6 9 1023.3 1023.3 0.0
29/05:30pm 15.6 12.4 8.6 63 3.6 NE 15 20 8 11 1023.1 1023.1 0.0
29/05:00pm 15.9 12.3 8.4 61 3.8 NE 17 24 9 13 1023.1 1023.1 0.0
29/04:30pm 16.5 12.6 8.5 59 4.1 NE 19 24 10 13 1022.9 1022.9 0.0
29/04:00pm 16.8 12.7 8.8 59 4.1 NE 20 28 11 15 1022.9 1022.9 0.0
29/03:30pm 17.0 12.9 8.7 58 4.3 NE 20 26 11 14 1023.0 1023.0 0.0
29/03:00pm 17.7 13.4 9.3 58 4.4 NE 22 28 12 15 1023.1 1023.1 0.0
29/02:30pm 17.6 13.3 9.5 59 4.2 NE 22 26 12 14 1023.3 1023.3 0.0
29/02:00pm 17.8 13.6 9.9 60 4.2 NE 22 28 12 15 1023.6 1023.6 0.0
29/01:30pm 17.7 13.6 8.6 55 4.7 NE 20 24 11 13 1024.1 1024.1 0.0
29/01:00pm 17.6 13.6 9.2 58 4.4 NE 20 26 11 14 1024.6 1024.6 0.0
29/12:30pm 17.5 13.4 8.6 56 4.6 NE 20 28 11 15 1025.1 1025.1 0.0
29/12:00pm 17.8 14.0 9.7 59 4.2 NE 20 26 11 14 1025.4 1025.4 0.0
29/11:30am 17.5 14.1 9.2 58 4.3 ENE 17 20 9 11 1025.8 1025.8 0.0
29/11:00am 17.0 13.6 9.2 60 4.0 NE 17 22 9 12 1026.6 1026.6 0.0
29/10:30am 16.7 14.2 8.1 57 4.4 ENE 11 15 6 8 1027.3 1027.3 0.0
29/10:00am 16.0 13.1 8.2 60 3.9 NE 13 15 7 8 1027.8 1027.8 0.0
29/09:30am 16.1 13.2 8.3 60 4.0 ENE 13 19 7 10 1027.9 1027.9 0.0
29/09:00am 15.9 14.3 8.6 62 3.7 NE 7 13 4 7 1027.7 1027.7 0.0
29/08:30am 15.5 14.6 9.4 67 3.1 NW 4 7 2 4 1027.8 1027.8 0.0
29/08:00am 14.6 13.1 9.2 70 2.7 W 7 9 4 5 1027.9 1027.9 0.0
29/07:30am 13.7 12.1 10.3 80 1.8 W 9 9 5 5 1027.7 1027.7 0.0
29/07:00am 12.7 11.8 10.6 87 1.1 WNW 6 7 3 4 1027.2 1027.2 0.0
29/06:30am 12.1 11.2 10.7 91 0.7 W 6 9 3 5 1026.9 1026.9 0.0
29/06:00am 11.7 10.6 10.6 93 0.6 W 7 7 4 4 1026.6 1026.6 0.0
29/05:30am 11.7 10.7 10.4 92 0.7 W 6 6 3 3 1026.2 1026.2 0.0
29/05:00am 11.8 10.6 10.4 91 0.7 W 7 7 4 4 1026.0 1026.0 0.0
29/04:30am 11.8 10.8 10.4 91 0.7 W 6 7 3 4 1025.9 1025.9 0.0
29/04:00am 11.9 12.1 10.5 91 0.7 CALM 0 0 0 0 1025.9 1025.9 0.0
29/03:30am 12.0 12.2 10.4 90 0.8 CALM 0 0 0 0 1026.1 1026.1 0.0
29/03:00am 12.2 10.9 10.1 87 1.1 W 7 9 4 5 1026.3 1026.3 0.0
29/02:30am 12.1 10.9 10.2 88 1.0 W 7 9 4 5 1026.5 1026.5 0.0
29/02:00am 12.1 10.1 10.0 87 1.1 W 11 11 6 6 1026.9 1026.9 0.0
29/01:30am 12.1 10.5 10.2 88 1.0 WNW 9 11 5 6 1027.1 1027.1 0.0
29/01:00am 12.3 11.4 10.5 89 0.9 SW 6 7 3 4 1027.2 1027.2 0.0
29/12:30am 12.4 11.3 10.1 86 1.2 W 6 7 3 4 1027.3 1027.3 0.0
29/12:00am 12.2 11.1 10.1 87 1.1 W 6 7 3 4 1027.5 1027.5 0.0
 
Date/Time
EST
Temp
°C
App
Temp
°C
Dew
Point
°C
Rel
Hum
%
Delta-T
°C
Wind Press
QNH
hPa
Press
MSL
hPa
Rain since
9am
mm
Dir  Spd
km/h
Gust
km/h
Spd
kts
Gust
kts
28/11:30pm 12.2 10.6 10.3 88 1.0 WNW 9 9 5 5 1027.6 1027.6 0.0
28/11:00pm 12.4 12.5 10.1 86 1.2 CALM 0 0 0 0 1027.6 1027.6 0.0
28/10:30pm 12.2 12.1 9.6 84 1.3 CALM 0 0 0 0 1027.7 1027.7 0.0
28/10:00pm 12.0 12.0 9.9 87 1.1 CALM 0 0 0 0 1027.7 1027.7 0.0
28/09:30pm 11.8 11.3 9.5 86 1.2 SW 2 6 1 3 1027.6 1027.6 0.0
28/09:00pm 11.6 10.4 9.7 88 1.0 SW 6 7 3 4 1027.7 1027.7 0.0
28/08:30pm 11.1 9.6 9.2 88 0.9 WSW 7 9 4 5 1027.6 1027.6 0.0
28/08:00pm 10.6 8.7 9.0 90 0.8 W 9 9 5 5 1027.4 1027.4 0.0
28/07:30pm 10.6 9.0 8.2 85 1.2 SSW 6 7 3 4 1027.0 1027.0 0.0
28/07:00pm 12.0 10.5 8.3 78 1.8 SE 6 7 3 4 1026.6 1026.6 0.0
28/06:30pm 13.4 11.8 8.7 73 2.4 SE 7 9 4 5 1026.1 1026.1 0.0
28/06:00pm 14.2 11.8 8.8 70 2.7 E 11 13 6 7 1025.8 1025.8 0.0
28/05:30pm 15.0 11.8 8.3 64 3.4 E 15 19 8 10 1025.4 1025.4 0.0
28/05:00pm 15.7 12.4 8.0 60 3.8 ENE 15 20 8 11 1025.2 1025.2 0.0
28/04:30pm 16.1 12.5 8.3 60 4.0 NE 17 20 9 11 1024.8 1024.8 0.0
28/04:00pm 16.5 12.9 8.5 59 4.1 NE 17 24 9 13 1024.6 1024.6 0.0
28/03:30pm 16.9 12.9 8.3 57 4.4 NE 19 22 10 12 1024.6 1024.6 0.0
28/03:00pm 17.1 13.5 8.5 57 4.4 ENE 17 20 9 11 1024.7 1024.7 0.0
28/02:30pm 17.4 13.5 8.8 57 4.4 ENE 19 24 10 13 1024.9 1024.9 0.0
28/02:00pm 17.8 14.0 9.7 59 4.2 ENE 20 28 11 15 1024.9 1024.9 0.0
28/01:30pm 17.3 13.2 7.9 54 4.8 ENE 19 24 10 13 1025.0 1025.0 0.0
28/01:00pm 17.5 13.3 8.4 55 4.6 ENE 20 26 11 14 1025.1 1025.1 0.0
28/12:30pm 18.0 14.1 9.6 58 4.4 NE 20 30 11 16 1025.1 1025.1 0.0
28/12:00pm 17.3 12.6 7.9 54 4.7 ENE 22 28 12 15 1025.4 1025.4 0.0
28/11:30am 17.4 12.7 7.7 53 4.9 NE 22 28 12 15 1025.9 1025.9 0.0
28/11:00am 17.4 13.1 7.2 51 5.1 ENE 19 26 10 14 1026.3 1026.3 0.0
28/10:30am 17.2 12.7 6.1 48 5.4 ENE 19 22 10 12 1026.8 1026.8 0.0
28/10:00am 17.1 13.3 5.7 47 5.5 ENE 15 20 8 11 1027.1 1027.1 0.0
28/09:30am 16.0 12.0 4.7 47 5.3 N 15 19 8 10 1027.4 1027.4 0.0

Other formats

Comma delimited format used in spreadsheet applications
http://www.bom.gov.au/fwo/IDN60801/IDN60801.95748.axf

JavaScript Object Notation format (JSON) in row-major order
http://www.bom.gov.au/fwo/IDN60801/IDN60801.95748.json

Data quality

Most of these data are generated automatically and are frequently updated. Quality checks on data are not normally performed. It is possible for incorrect values to appear. Refer to information at About Latest Weather Observations and please check the disclaimer before using these data.